AFL0211 WIII-WADD
Flight info
| Callsign | AFL0211 |
|---|---|
| Flight time | N/A |
| Altitude | 41000 |
| Route | CA2C CA T3 MOVMO MOVMO1E |
| Aircraft | A359/H-VGDW/C |
Departure
| Time | 2026-04-29 17:47 |
|---|---|
| Airport | Soekarno-Hatta International Airport (WIII) |
Arrival
| Time | N/A |
|---|---|
| Airport | Denpasar I Gusti Ngurah Rai International Airport (WADD) |
| Time | Latitude | Longitude | Altitude | Speed | Heading |
|---|---|---|---|---|---|
| 2026-04-29 17:25 | -6.13016 | 106.65907 | 44 ft | 0 kts | 333° |
| 2026-04-29 17:40 | -6.13021 | 106.65910 | 44 ft | 2 kts | 333° |
| 2026-04-29 17:40 | -6.13036 | 106.65917 | 42 ft | 3 kts | 327° |
| 2026-04-29 17:40 | -6.13050 | 106.65929 | 43 ft | 3 kts | 308° |
| 2026-04-29 17:41 | -6.13059 | 106.65944 | 41 ft | 3 kts | 288° |
| 2026-04-29 17:41 | -6.13062 | 106.65962 | 41 ft | 3 kts | 269° |
| 2026-04-29 17:41 | -6.13061 | 106.65975 | 40 ft | 0 kts | 254° |
| 2026-04-29 17:42 | -6.13067 | 106.65955 | 47 ft | 7 kts | 254° |
| 2026-04-29 17:42 | -6.13089 | 106.65893 | 45 ft | 12 kts | 247° |
| 2026-04-29 17:42 | -6.13146 | 106.65832 | 45 ft | 14 kts | 193° |
| 2026-04-29 17:43 | -6.13253 | 106.65815 | 45 ft | 18 kts | 189° |
| 2026-04-29 17:43 | -6.13349 | 106.65857 | 45 ft | 17 kts | 94° |
| 2026-04-29 17:43 | -6.13307 | 106.65985 | 45 ft | 22 kts | 68° |
| 2026-04-29 17:43 | -6.13246 | 106.66138 | 45 ft | 25 kts | 68° |
| 2026-04-29 17:44 | -6.13176 | 106.66314 | 44 ft | 29 kts | 68° |
| 2026-04-29 17:44 | -6.13097 | 106.66511 | 44 ft | 32 kts | 68° |
| 2026-04-29 17:44 | -6.13012 | 106.66723 | 43 ft | 34 kts | 68° |
| 2026-04-29 17:44 | -6.12922 | 106.66946 | 43 ft | 36 kts | 68° |
| 2026-04-29 17:45 | -6.12836 | 106.67166 | 40 ft | 27 kts | 68° |
| 2026-04-29 17:45 | -6.12784 | 106.67297 | 42 ft | 12 kts | 68° |
| 2026-04-29 17:45 | -6.12804 | 106.67369 | 42 ft | 13 kts | 154° |
| 2026-04-29 17:45 | -6.12904 | 106.67411 | 42 ft | 18 kts | 161° |
| 2026-04-29 17:46 | -6.13025 | 106.67379 | 42 ft | 20 kts | 222° |
| 2026-04-29 17:46 | -6.13074 | 106.67304 | 42 ft | 0 kts | 246° |
| 2026-04-29 17:46 | -6.13105 | 106.67226 | 42 ft | 49 kts | 249° |
| 2026-04-29 17:47 | -6.13366 | 106.66568 | 47 ft | 150 kts | 248° |
| 2026-04-29 17:47 | -6.13837 | 106.65382 | 515 ft | 201 kts | 249° |
| 2026-04-29 17:47 | -6.14391 | 106.64005 | 1409 ft | 226 kts | 248° |
| 2026-04-29 17:47 | -6.15001 | 106.62488 | 2124 ft | 238 kts | 248° |
| 2026-04-29 17:48 | -6.15619 | 106.60945 | 3043 ft | 238 kts | 248° |
| 2026-04-29 17:48 | -6.16241 | 106.59385 | 3889 ft | 242 kts | 248° |
| 2026-04-29 17:48 | -6.16873 | 106.57800 | 4700 ft | 247 kts | 248° |
| 2026-04-29 17:48 | -6.17516 | 106.56186 | 5499 ft | 251 kts | 248° |
| 2026-04-29 17:49 | -6.18170 | 106.54549 | 6333 ft | 254 kts | 248° |
| 2026-04-29 17:49 | -6.18931 | 106.52937 | 7111 ft | 258 kts | 236° |
| 2026-04-29 17:49 | -6.20246 | 106.51725 | 7914 ft | 261 kts | 205° |
| 2026-04-29 17:49 | -6.22000 | 106.51358 | 8746 ft | 261 kts | 173° |
| 2026-04-29 17:50 | -6.23742 | 106.51819 | 9627 ft | 261 kts | 156° |
| 2026-04-29 17:50 | -6.25432 | 106.52534 | 10403 ft | 265 kts | 152° |
| 2026-04-29 17:50 | -6.26933 | 106.53592 | 11197 ft | 264 kts | 129° |
| 2026-04-29 17:50 | -6.27805 | 106.55179 | 12013 ft | 260 kts | 102° |
| 2026-04-29 17:51 | -6.27829 | 106.56977 | 12812 ft | 260 kts | 75° |
| 2026-04-29 17:51 | -6.27009 | 106.58584 | 13599 ft | 262 kts | 48° |
| 2026-04-29 17:51 | -6.25597 | 106.59756 | 14302 ft | 266 kts | 38° |
| 2026-04-29 17:51 | -6.24293 | 106.61054 | 14999 ft | 269 kts | 51° |
| 2026-04-29 17:52 | -6.23151 | 106.62557 | 15739 ft | 272 kts | 54° |
| 2026-04-29 17:52 | -6.22397 | 106.63603 | 16228 ft | 274 kts | 54° |
| 2026-04-29 17:52 | -6.20912 | 106.65684 | 17237 ft | 279 kts | 55° |
| 2026-04-29 17:52 | -6.19796 | 106.67291 | 17984 ft | 282 kts | 58° |
| 2026-04-29 17:53 | -6.18998 | 106.69095 | 18616 ft | 285 kts | 76° |
| 2026-04-29 17:53 | -6.18878 | 106.71095 | 19123 ft | 295 kts | 97° |
| 2026-04-29 17:53 | -6.19504 | 106.73113 | 19389 ft | 313 kts | 114° |
| 2026-04-29 17:53 | -6.20494 | 106.75132 | 19675 ft | 329 kts | 116° |
| 2026-04-29 17:54 | -6.21549 | 106.77210 | 20198 ft | 336 kts | 115° |
| 2026-04-29 17:54 | -6.22607 | 106.79325 | 20833 ft | 340 kts | 115° |
| 2026-04-29 17:54 | -6.23661 | 106.81459 | 21465 ft | 343 kts | 115° |
| 2026-04-29 17:54 | -6.24720 | 106.83620 | 22089 ft | 347 kts | 115° |
| 2026-04-29 17:55 | -6.25789 | 106.85810 | 22718 ft | 350 kts | 115° |
| 2026-04-29 17:55 | -6.26866 | 106.88021 | 23361 ft | 354 kts | 115° |
| 2026-04-29 17:55 | -6.27966 | 106.90259 | 23792 ft | 363 kts | 116° |
| 2026-04-29 17:55 | -6.29164 | 106.92543 | 24022 ft | 377 kts | 117° |
| 2026-04-29 17:56 | -6.30422 | 106.94907 | 24230 ft | 391 kts | 117° |
| 2026-04-29 17:56 | -6.31721 | 106.97361 | 24441 ft | 404 kts | 117° |
| 2026-04-29 17:56 | -6.33053 | 106.99889 | 24648 ft | 416 kts | 117° |
| 2026-04-29 17:56 | -6.34421 | 107.02494 | 24835 ft | 427 kts | 117° |
| 2026-04-29 17:57 | -6.35823 | 107.05173 | 25030 ft | 438 kts | 117° |
| 2026-04-29 17:57 | -6.37252 | 107.07896 | 25362 ft | 444 kts | 117° |
| 2026-04-29 17:57 | -6.38700 | 107.10655 | 25787 ft | 448 kts | 117° |
| 2026-04-29 17:57 | -6.39663 | 107.12492 | 26091 ft | 450 kts | 117° |
| 2026-04-29 17:58 | -6.41626 | 107.16237 | 26724 ft | 455 kts | 117° |
| 2026-04-29 17:58 | -6.43103 | 107.19058 | 27204 ft | 458 kts | 117° |
| 2026-04-29 17:58 | -6.44574 | 107.21868 | 27682 ft | 462 kts | 117° |
| 2026-04-29 17:58 | -6.46094 | 107.24772 | 28150 ft | 465 kts | 117° |
| 2026-04-29 17:59 | -6.47585 | 107.27622 | 28645 ft | 469 kts | 117° |
| 2026-04-29 17:59 | -6.49109 | 107.30534 | 29084 ft | 472 kts | 117° |
| 2026-04-29 17:59 | -6.50642 | 107.33464 | 29521 ft | 476 kts | 117° |
| 2026-04-29 17:59 | -6.52188 | 107.36421 | 29955 ft | 479 kts | 117° |
| 2026-04-29 18:00 | -6.53747 | 107.39402 | 30332 ft | 483 kts | 117° |
| 2026-04-29 18:00 | -6.55278 | 107.42413 | 30697 ft | 485 kts | 114° |
| 2026-04-29 18:00 | -6.56484 | 107.45590 | 31052 ft | 487 kts | 105° |
| 2026-04-29 18:00 | -6.57165 | 107.48930 | 31408 ft | 489 kts | 97° |
| 2026-04-29 18:01 | -6.57589 | 107.52332 | 31747 ft | 492 kts | 96° |
| 2026-04-29 18:01 | -6.57982 | 107.55756 | 32082 ft | 494 kts | 96° |
| 2026-04-29 18:01 | -6.58382 | 107.59198 | 32410 ft | 497 kts | 96° |
| 2026-04-29 18:01 | -6.58788 | 107.62660 | 32727 ft | 499 kts | 96° |
| 2026-04-29 18:02 | -6.59199 | 107.66133 | 33039 ft | 501 kts | 96° |
| 2026-04-29 18:02 | -6.59612 | 107.69609 | 33473 ft | 500 kts | 96° |
| 2026-04-29 18:02 | -6.60024 | 107.73080 | 33833 ft | 501 kts | 96° |
| 2026-04-29 18:03 | -6.60850 | 107.80024 | 33913 ft | 499 kts | 96° |
| 2026-04-29 18:03 | -6.61675 | 107.86958 | 33908 ft | 500 kts | 96° |
| 2026-04-29 18:04 | -6.62500 | 107.93905 | 33910 ft | 500 kts | 96° |
| 2026-04-29 18:04 | -6.63321 | 108.00860 | 33901 ft | 501 kts | 96° |
| 2026-04-29 18:05 | -6.64137 | 108.07767 | 33898 ft | 501 kts | 96° |
| 2026-04-29 18:05 | -6.64957 | 108.14724 | 33894 ft | 501 kts | 96° |
| 2026-04-29 18:06 | -6.65777 | 108.21685 | 33894 ft | 501 kts | 96° |
| 2026-04-29 18:06 | -6.66596 | 108.28644 | 33893 ft | 501 kts | 96° |
| 2026-04-29 18:07 | -6.67414 | 108.35611 | 33889 ft | 501 kts | 96° |
| 2026-04-29 18:07 | -6.68231 | 108.42575 | 33888 ft | 501 kts | 96° |
| 2026-04-29 18:08 | -6.69047 | 108.49538 | 33886 ft | 501 kts | 96° |
| 2026-04-29 18:08 | -6.69861 | 108.56498 | 33888 ft | 501 kts | 96° |
| 2026-04-29 18:09 | -6.70837 | 108.63442 | 33884 ft | 501 kts | 99° |
| 2026-04-29 18:09 | -6.71964 | 108.70360 | 33883 ft | 501 kts | 99° |
| 2026-04-29 18:10 | -6.73069 | 108.77274 | 33882 ft | 501 kts | 99° |
| 2026-04-29 18:10 | -6.74143 | 108.84198 | 33876 ft | 500 kts | 98° |
| 2026-04-29 18:11 | -6.75202 | 108.91118 | 33878 ft | 500 kts | 98° |
| 2026-04-29 18:11 | -6.76258 | 108.98032 | 33878 ft | 500 kts | 98° |
| 2026-04-29 18:12 | -6.77316 | 109.04950 | 33878 ft | 500 kts | 98° |
| 2026-04-29 18:12 | -6.78373 | 109.11868 | 33878 ft | 500 kts | 98° |
| 2026-04-29 18:13 | -6.79430 | 109.18788 | 33880 ft | 500 kts | 98° |
| 2026-04-29 18:13 | -6.80478 | 109.25657 | 33880 ft | 500 kts | 98° |
| 2026-04-29 18:14 | -6.81533 | 109.32576 | 33882 ft | 500 kts | 98° |
| 2026-04-29 18:14 | -6.82587 | 109.39499 | 33880 ft | 501 kts | 98° |
| 2026-04-29 18:15 | -6.83640 | 109.46425 | 33880 ft | 501 kts | 98° |
| 2026-04-29 18:15 | -6.84693 | 109.53356 | 33880 ft | 501 kts | 98° |
| 2026-04-29 18:16 | -6.85746 | 109.60288 | 33883 ft | 501 kts | 98° |
| 2026-04-29 18:16 | -6.86797 | 109.67217 | 33884 ft | 501 kts | 98° |
| 2026-04-29 18:17 | -6.87846 | 109.74147 | 33886 ft | 501 kts | 98° |
| 2026-04-29 18:17 | -6.88894 | 109.81070 | 33888 ft | 500 kts | 98° |
| 2026-04-29 18:18 | -6.89940 | 109.87989 | 33891 ft | 500 kts | 98° |
| 2026-04-29 18:18 | -6.90985 | 109.94905 | 33890 ft | 500 kts | 98° |
| 2026-04-29 18:19 | -6.92029 | 110.01822 | 33891 ft | 500 kts | 98° |
| 2026-04-29 18:19 | -6.93072 | 110.08739 | 33891 ft | 500 kts | 98° |
| 2026-04-29 18:20 | -6.94107 | 110.15612 | 33887 ft | 500 kts | 98° |
| 2026-04-29 18:20 | -6.95149 | 110.22538 | 33886 ft | 501 kts | 98° |
| 2026-04-29 18:21 | -6.96022 | 110.28344 | 33886 ft | 501 kts | 98° |
| 2026-04-29 18:21 | -6.97062 | 110.35273 | 33882 ft | 500 kts | 98° |
| 2026-04-29 18:22 | -6.97551 | 110.42251 | 33883 ft | 501 kts | 91° |
| 2026-04-29 18:22 | -6.97709 | 110.49213 | 33883 ft | 501 kts | 91° |
| 2026-04-29 18:23 | -6.97818 | 110.56277 | 33885 ft | 501 kts | 91° |
| 2026-04-29 18:23 | -6.97930 | 110.63244 | 33883 ft | 501 kts | 91° |
| 2026-04-29 18:24 | -6.98051 | 110.70261 | 33883 ft | 502 kts | 91° |
| 2026-04-29 18:24 | -6.98175 | 110.77281 | 33881 ft | 502 kts | 91° |
| 2026-04-29 18:25 | -6.98299 | 110.84302 | 33879 ft | 502 kts | 91° |
| 2026-04-29 18:25 | -6.98421 | 110.91321 | 33881 ft | 501 kts | 91° |
| 2026-04-29 18:26 | -6.98541 | 110.98334 | 33881 ft | 501 kts | 91° |
| 2026-04-29 18:26 | -6.98660 | 111.05347 | 33884 ft | 501 kts | 91° |
| 2026-04-29 18:27 | -6.98778 | 111.12355 | 33886 ft | 501 kts | 91° |
| 2026-04-29 18:27 | -6.98896 | 111.19365 | 33882 ft | 501 kts | 91° |
| 2026-04-29 18:28 | -6.99012 | 111.26382 | 33887 ft | 501 kts | 91° |
| 2026-04-29 18:28 | -6.99127 | 111.33390 | 33885 ft | 500 kts | 91° |
| 2026-04-29 18:29 | -6.99457 | 111.40335 | 33879 ft | 501 kts | 98° |
| 2026-04-29 18:29 | -7.01431 | 111.47031 | 33882 ft | 501 kts | 112° |
| 2026-04-29 18:30 | -7.04126 | 111.53500 | 33884 ft | 501 kts | 112° |
| 2026-04-29 18:30 | -7.06838 | 111.59968 | 33884 ft | 501 kts | 112° |
| 2026-04-29 18:31 | -7.09548 | 111.66443 | 33884 ft | 501 kts | 112° |
| 2026-04-29 18:31 | -7.12252 | 111.72905 | 33883 ft | 501 kts | 112° |
| 2026-04-29 18:32 | -7.14956 | 111.79372 | 33884 ft | 501 kts | 112° |
| 2026-04-29 18:32 | -7.19008 | 111.89071 | 33884 ft | 501 kts | 112° |
| 2026-04-29 18:33 | -7.21707 | 111.95534 | 33882 ft | 501 kts | 112° |
| 2026-04-29 18:33 | -7.24406 | 112.01999 | 33883 ft | 501 kts | 112° |
| 2026-04-29 18:34 | -7.26648 | 112.07371 | 33886 ft | 501 kts | 112° |
| 2026-04-29 18:34 | -7.29800 | 112.14928 | 33883 ft | 500 kts | 112° |
| 2026-04-29 18:35 | -7.32493 | 112.21390 | 33882 ft | 500 kts | 112° |
| 2026-04-29 18:35 | -7.35186 | 112.27853 | 33885 ft | 500 kts | 112° |
| 2026-04-29 18:36 | -7.37859 | 112.34270 | 33888 ft | 500 kts | 112° |
| 2026-04-29 18:36 | -7.40553 | 112.40740 | 33887 ft | 501 kts | 112° |
| 2026-04-29 18:37 | -7.41788 | 112.43707 | 33888 ft | 501 kts | 112° |
| 2026-04-29 18:37 | -7.44477 | 112.50172 | 33886 ft | 501 kts | 112° |
| 2026-04-29 18:38 | -7.47170 | 112.56649 | 33887 ft | 501 kts | 112° |
| 2026-04-29 18:38 | -7.49864 | 112.63132 | 33888 ft | 502 kts | 112° |
| 2026-04-29 18:39 | -7.52561 | 112.69623 | 33887 ft | 502 kts | 111° |
| 2026-04-29 18:39 | -7.55256 | 112.76115 | 33887 ft | 503 kts | 111° |
| 2026-04-29 18:40 | -7.56741 | 112.79693 | 33888 ft | 503 kts | 111° |
| 2026-04-29 18:40 | -7.59189 | 112.85593 | 33883 ft | 502 kts | 111° |
| 2026-04-29 18:41 | -7.63231 | 112.95342 | 33147 ft | 505 kts | 111° |
| 2026-04-29 18:41 | -7.64588 | 112.98617 | 32897 ft | 506 kts | 112° |
| 2026-04-29 18:42 | -7.65944 | 113.01890 | 32647 ft | 507 kts | 112° |
| 2026-04-29 18:42 | -7.67306 | 113.05177 | 32401 ft | 508 kts | 112° |
| 2026-04-29 18:42 | -7.68666 | 113.08460 | 32154 ft | 509 kts | 112° |
| 2026-04-29 18:42 | -7.70029 | 113.11753 | 31903 ft | 509 kts | 112° |
| 2026-04-29 18:43 | -7.71393 | 113.15048 | 31672 ft | 510 kts | 112° |
| 2026-04-29 18:43 | -7.72759 | 113.18350 | 31444 ft | 510 kts | 112° |
| 2026-04-29 18:43 | -7.74107 | 113.21607 | 31202 ft | 511 kts | 112° |
| 2026-04-29 18:43 | -7.75474 | 113.24913 | 30968 ft | 511 kts | 112° |
| 2026-04-29 18:44 | -7.76844 | 113.28225 | 30740 ft | 511 kts | 112° |
| 2026-04-29 18:44 | -7.78212 | 113.31534 | 30506 ft | 512 kts | 112° |
| 2026-04-29 18:44 | -7.79581 | 113.34845 | 30280 ft | 512 kts | 112° |
| 2026-04-29 18:44 | -7.80951 | 113.38161 | 30057 ft | 513 kts | 112° |
| 2026-04-29 18:45 | -7.82324 | 113.41483 | 29804 ft | 513 kts | 112° |
| 2026-04-29 18:45 | -7.83693 | 113.44797 | 29530 ft | 512 kts | 112° |
| 2026-04-29 18:45 | -7.85059 | 113.48104 | 29278 ft | 510 kts | 112° |
| 2026-04-29 18:45 | -7.86422 | 113.51404 | 29031 ft | 508 kts | 112° |
| 2026-04-29 18:46 | -7.87775 | 113.54682 | 28769 ft | 506 kts | 112° |
| 2026-04-29 18:46 | -7.89125 | 113.57953 | 28509 ft | 504 kts | 112° |
| 2026-04-29 18:46 | -7.90465 | 113.61203 | 28262 ft | 502 kts | 112° |
| 2026-04-29 18:46 | -7.91804 | 113.64449 | 28015 ft | 500 kts | 112° |
| 2026-04-29 18:47 | -7.93136 | 113.67681 | 27771 ft | 497 kts | 112° |
| 2026-04-29 18:47 | -7.94459 | 113.70891 | 27519 ft | 495 kts | 112° |
| 2026-04-29 18:47 | -7.95780 | 113.74098 | 27286 ft | 493 kts | 112° |
| 2026-04-29 18:47 | -7.97094 | 113.77286 | 27044 ft | 492 kts | 112° |
| 2026-04-29 18:48 | -7.98402 | 113.80464 | 26794 ft | 490 kts | 112° |
| 2026-04-29 18:48 | -7.99747 | 113.83613 | 26559 ft | 488 kts | 115° |
| 2026-04-29 18:48 | -8.01540 | 113.86503 | 26327 ft | 487 kts | 128° |
| 2026-04-29 18:48 | -8.03961 | 113.88872 | 26100 ft | 486 kts | 142° |
| 2026-04-29 18:49 | -8.06880 | 113.90572 | 25865 ft | 485 kts | 156° |
| 2026-04-29 18:49 | -8.10075 | 113.91498 | 25638 ft | 485 kts | 170° |
| 2026-04-29 18:49 | -8.13448 | 113.91627 | 25409 ft | 485 kts | 184° |
| 2026-04-29 18:49 | -8.16814 | 113.91509 | 25177 ft | 483 kts | 176° |
| 2026-04-29 18:50 | -8.20153 | 113.91799 | 24958 ft | 481 kts | 172° |
| 2026-04-29 18:50 | -8.23472 | 113.92198 | 24729 ft | 479 kts | 172° |
| 2026-04-29 18:50 | -8.26774 | 113.92609 | 24511 ft | 477 kts | 172° |
| 2026-04-29 18:50 | -8.30064 | 113.93020 | 24288 ft | 476 kts | 172° |
| 2026-04-29 18:51 | -8.33345 | 113.93429 | 24072 ft | 474 kts | 172° |
| 2026-04-29 18:51 | -8.36612 | 113.93835 | 23844 ft | 472 kts | 172° |
| 2026-04-29 18:51 | -8.39865 | 113.94241 | 23626 ft | 471 kts | 172° |
| 2026-04-29 18:51 | -8.43112 | 113.94645 | 23405 ft | 469 kts | 172° |
| 2026-04-29 18:52 | -8.46339 | 113.95047 | 23141 ft | 467 kts | 172° |
| 2026-04-29 18:52 | -8.49562 | 113.95448 | 22883 ft | 465 kts | 172° |
| 2026-04-29 18:52 | -8.52767 | 113.95848 | 22627 ft | 463 kts | 172° |
| 2026-04-29 18:52 | -8.55916 | 113.96372 | 22090 ft | 455 kts | 165° |
| 2026-04-29 18:53 | -8.58814 | 113.97569 | 21407 ft | 448 kts | 148° |
| 2026-04-29 18:53 | -8.61223 | 113.99513 | 20739 ft | 441 kts | 132° |
| 2026-04-29 18:53 | -8.62951 | 114.02035 | 20075 ft | 435 kts | 115° |
| 2026-04-29 18:53 | -8.63893 | 114.04909 | 19430 ft | 429 kts | 102° |
| 2026-04-29 18:54 | -8.64597 | 114.07831 | 18767 ft | 426 kts | 105° |
| 2026-04-29 18:54 | -8.65422 | 114.10654 | 18109 ft | 423 kts | 107° |
| 2026-04-29 18:54 | -8.66311 | 114.13476 | 17359 ft | 420 kts | 107° |
| 2026-04-29 18:54 | -8.67215 | 114.16266 | 16657 ft | 416 kts | 108° |
| 2026-04-29 18:55 | -8.68124 | 114.19026 | 15974 ft | 411 kts | 108° |
| 2026-04-29 18:55 | -8.69028 | 114.21751 | 15281 ft | 407 kts | 108° |
| 2026-04-29 18:55 | -8.69928 | 114.24451 | 14593 ft | 404 kts | 108° |
| 2026-04-29 18:55 | -8.70822 | 114.27130 | 13909 ft | 400 kts | 108° |
| 2026-04-29 18:56 | -8.71710 | 114.29787 | 13171 ft | 397 kts | 108° |
| 2026-04-29 18:56 | -8.72586 | 114.32409 | 12468 ft | 392 kts | 108° |
| 2026-04-29 18:56 | -8.73451 | 114.34998 | 11789 ft | 386 kts | 108° |
| 2026-04-29 18:56 | -8.74305 | 114.37553 | 11117 ft | 381 kts | 108° |
| 2026-04-29 18:57 | -8.75142 | 114.40058 | 10756 ft | 368 kts | 108° |
| 2026-04-29 18:57 | -8.75939 | 114.42439 | 10659 ft | 348 kts | 108° |
| 2026-04-29 18:57 | -8.76693 | 114.44696 | 10553 ft | 330 kts | 108° |
| 2026-04-29 18:57 | -8.77410 | 114.46840 | 10443 ft | 314 kts | 108° |
| 2026-04-29 18:58 | -8.78095 | 114.48891 | 10263 ft | 302 kts | 108° |
| 2026-04-29 18:58 | -8.78753 | 114.50865 | 10071 ft | 292 kts | 108° |
| 2026-04-29 18:58 | -8.79396 | 114.52792 | 9764 ft | 287 kts | 108° |
| 2026-04-29 18:58 | -8.80030 | 114.54694 | 9352 ft | 285 kts | 108° |
| 2026-04-29 18:59 | -8.80658 | 114.56579 | 8964 ft | 282 kts | 108° |
| 2026-04-29 18:59 | -8.81280 | 114.58446 | 8554 ft | 279 kts | 108° |
| 2026-04-29 18:59 | -8.81899 | 114.60301 | 8177 ft | 277 kts | 108° |
| 2026-04-29 18:59 | -8.82512 | 114.62139 | 7781 ft | 275 kts | 108° |
| 2026-04-29 19:00 | -8.83120 | 114.63965 | 7383 ft | 273 kts | 108° |
| 2026-04-29 19:00 | -8.83725 | 114.65780 | 6990 ft | 271 kts | 108° |
| 2026-04-29 19:00 | -8.84259 | 114.67600 | 6622 ft | 269 kts | 101° |
| 2026-04-29 19:00 | -8.84258 | 114.69475 | 6213 ft | 269 kts | 78° |
| 2026-04-29 19:01 | -8.83652 | 114.71259 | 5806 ft | 268 kts | 69° |
| 2026-04-29 19:01 | -8.82933 | 114.72968 | 5405 ft | 267 kts | 68° |
| 2026-04-29 19:01 | -8.82210 | 114.74679 | 5149 ft | 265 kts | 69° |
| 2026-04-29 19:01 | -8.81497 | 114.76390 | 4950 ft | 263 kts | 69° |
| 2026-04-29 19:02 | -8.80791 | 114.78098 | 4824 ft | 263 kts | 69° |
| 2026-04-29 19:02 | -8.80316 | 114.79250 | 4741 ft | 262 kts | 69° |
| 2026-04-29 19:02 | -8.79393 | 114.81499 | 4586 ft | 262 kts | 69° |
| 2026-04-29 19:02 | -8.78696 | 114.83199 | 4463 ft | 261 kts | 69° |
| 2026-04-29 19:03 | -8.78009 | 114.84876 | 4312 ft | 259 kts | 69° |
| 2026-04-29 19:03 | -8.77320 | 114.86558 | 4055 ft | 259 kts | 69° |
| 2026-04-29 19:03 | -8.76631 | 114.88239 | 3739 ft | 258 kts | 69° |
| 2026-04-29 19:03 | -8.75949 | 114.89908 | 3437 ft | 256 kts | 70° |
| 2026-04-29 19:04 | -8.75492 | 114.91634 | 3126 ft | 254 kts | 85° |
| 2026-04-29 19:04 | -8.75434 | 114.93397 | 2870 ft | 247 kts | 91° |
| 2026-04-29 19:04 | -8.75461 | 114.95091 | 2715 ft | 235 kts | 91° |
| 2026-04-29 19:04 | -8.75576 | 114.96702 | 2559 ft | 224 kts | 94° |
| 2026-04-29 19:05 | -8.75558 | 114.98223 | 2484 ft | 206 kts | 88° |
| 2026-04-29 19:05 | -8.75487 | 114.99567 | 2514 ft | 177 kts | 88° |
| 2026-04-29 19:05 | -8.75431 | 115.00723 | 2521 ft | 153 kts | 89° |
| 2026-04-29 19:05 | -8.75393 | 115.01725 | 2505 ft | 135 kts | 91° |
| 2026-04-29 19:06 | -8.75369 | 115.02664 | 2261 ft | 136 kts | 90° |
| 2026-04-29 19:06 | -8.75342 | 115.03637 | 1868 ft | 140 kts | 91° |
| 2026-04-29 19:06 | -8.75280 | 115.05530 | 1499 ft | 125 kts | 90° |
| 2026-04-29 19:07 | -8.75246 | 115.06414 | 1493 ft | 127 kts | 90° |
| 2026-04-29 19:07 | -8.75234 | 115.06705 | 1495 ft | 128 kts | 90° |
| 2026-04-29 19:07 | -8.75174 | 115.08244 | 1357 ft | 132 kts | 89° |
| 2026-04-29 19:07 | -8.75137 | 115.09159 | 1174 ft | 129 kts | 89° |
| 2026-04-29 19:08 | -8.75102 | 115.10061 | 1012 ft | 128 kts | 89° |
| 2026-04-29 19:08 | -8.75068 | 115.10959 | 827 ft | 128 kts | 88° |
| 2026-04-29 19:08 | -8.75034 | 115.11850 | 670 ft | 129 kts | 86° |
| 2026-04-29 19:08 | -8.74997 | 115.12764 | 458 ft | 130 kts | 84° |
| 2026-04-29 19:09 | -8.74961 | 115.13687 | 309 ft | 135 kts | 84° |
| 2026-04-29 19:09 | -8.74924 | 115.14638 | 139 ft | 135 kts | 83° |
| 2026-04-29 19:09 | -8.74889 | 115.15564 | 43 ft | 132 kts | 83° |
| 2026-04-29 19:09 | -8.74853 | 115.16343 | 27 ft | 85 kts | 87° |
| 2026-04-29 19:10 | -8.74832 | 115.16702 | 28 ft | 51 kts | 79° |